Hovedside
METAR-TAF:

METAR-TAF

Lufthavner :

Corvallis, Oregon, USA

breddegrad: 44-30N, lengdegrad: 123-17W, høyde over havet: 75 m

Gjeldene værobservasjon

Denne rapporten ble laget for 1 time og 52 minutter siden, klokken 20:56 UTC
Vind 8 kt fra Nord-nordøst
Temperatur 26°C
Luftfuktighet 30%
Trykk 1023 hPa
Sikt: 12.9 km
Skyfri himmel

METAR: KCVO 172056Z AUTO 03008KT 8SM CLR 26/07 A3021 RMK AO2 SLP231 T02560072 58014

Tid: 15:48 (22:48 UTC)


TAF: fraværende

Værobservasjoner og værvarsel for over 4000 flyplasser (METAR- og TAF-rapporter).

Tilgjengelige stasjoner er representert av de røde og gule prikkene på kartet.

Hold musepekeren over prikken for å se navnet på stasjonen.

Klikk så for å se værobservasjoner og -varsler.

For å forandre kartet kan du klikke på den grønne knappen med svart kryss for å zoome inn, på den grønne knappen med strek for å zoome ut, eller på de grønne pilene for å se tilstøtende kart.


METAR-TAF: